Wetterdaten: aktuell Montag, 28.05.2018 05:30
Datum Zeit Temperatur Bodentemp. Luftfeuchte Luftdruck Niederschlag Windgeschw. Windrichtung Windrichtung Sonnenschein Nieder.dauer Evapotrans. Solarstrahl. Taupunkt Windchill Windben
28.05.2018 05:30 15,4 C 14,4 C 95 % 1020,1 hPa 0,4 l/m 0,0 km/h (0 Bft) N 0 0 min 21 min 0 mm 7 W/m 14,6 C 15,4 C 0,0 km/h (0 Bft)
28.05.2018 04:30 16,1 C 15,6 C 94 % 1020,6 hPa 0,0 l/m 1,8 km/h (1 Bft) N 360 0 min 6 min 0 mm 0 W/m 15,1 C 16,1 C 12,6 km/h (3 Bft)
28.05.2018 03:30 15,8 C 15,6 C 96 % 1020,2 hPa 0,0 l/m 0,0 km/h (0 Bft) N 0 0 min 0 min 0 mm 0 W/m 15,2 C 15,8 C 0,0 km/h (0 Bft)
28.05.2018 02:30 15,8 C 15,6 C 96 % 1019,8 hPa 0,0 l/m 0,0 km/h (0 Bft) N 0 0 min 0 min 0 mm 0 W/m 15,2 C 15,8 C 0,0 km/h (0 Bft)
28.05.2018 01:30 15,5 C 15,6 C 98 % 1019,7 hPa 0,0 l/m 1,8 km/h (1 Bft) O 90 0 min 0 min 0 mm 0 W/m 15,2 C 15,5 C 9,0 km/h (2 Bft)
28.05.2018 00:30 15,0 C 14,4 C 96 % 1020,1 hPa 0,0 l/m 3,6 km/h (1 Bft) O 90 0 min 0 min 0 mm 0 W/m 14,4 C 15,0 C 10,8 km/h (2 Bft)
27.05.2018 23:30 15,2 C 14,4 C 93 % 1020,1 hPa 0,0 l/m 0,0 km/h (0 Bft) N 0 0 min 0 min 0 mm 0 W/m 14,1 C 15,2 C 0,0 km/h (0 Bft)
27.05.2018 22:30 15,8 C 15,0 C 91 % 1020,2 hPa 0,0 l/m 0,0 km/h (0 Bft) O-NO 67 0 min 0 min 0 mm 0 W/m 14,3 C 15,8 C 5,4 km/h (1 Bft)
27.05.2018 21:30 16,9 C 16,7 C 87 % 1020,5 hPa 0,0 l/m 1,8 km/h (1 Bft) O-NO 67 29 min 0 min 0 mm 12 W/m 14,7 C 16,9 C 12,6 km/h (3 Bft)
27.05.2018 20:30 18,9 C 21,1 C 79 % 1020,1 hPa 0,0 l/m 1,8 km/h (1 Bft) O 90 60 min 0 min 0 mm 83 W/m 15,2 C 18,9 C 7,2 km/h (2 Bft)
27.05.2018 19:30 20,2 C 20,0 C 74 % 1019,8 hPa 0,0 l/m 3,6 km/h (1 Bft) O-NO 67 60 min 0 min 0 mm 195 W/m 15,4 C 20,2 C 10,8 km/h (2 Bft)
27.05.2018 18:30 21,4 C 21,1 C 70 % 1020,1 hPa 0,0 l/m 1,8 km/h (1 Bft) O-NO 67 60 min 0 min 0 mm 346 W/m 15,7 C 21,4 C 10,8 km/h (2 Bft)
27.05.2018 17:30 20,9 C 22,2 C 70 % 1020,3 hPa 0,0 l/m 3,6 km/h (1 Bft) O 90 60 min 0 min 0 mm 515 W/m 15,2 C 20,9 C 9,0 km/h (2 Bft)
27.05.2018 16:30 20,2 C 20,6 C 71 % 1021,0 hPa 0,0 l/m 0,0 km/h (0 Bft) N 0 54 min 0 min 0 mm 643 W/m 14,8 C 20,2 C 0,0 km/h (0 Bft)
27.05.2018 15:30 19,6 C 21,7 C 74 % 1021,6 hPa 0,0 l/m 0,0 km/h (0 Bft) O-NO 67 21 min 0 min 0 mm 425 W/m 14,8 C 19,6 C 3,6 km/h (1 Bft)
27.05.2018 14:30 20,8 C 22,2 C 72 % 1022,0 hPa 0,0 l/m 3,6 km/h (1 Bft) NO 45 43 min 0 min 1 mm 332 W/m 15,6 C 20,8 C 14,4 km/h (3 Bft)
27.05.2018 13:30 21,6 C 30,0 C 63 % 1022,4 hPa 0,0 l/m 12,6 km/h (3 Bft) O 90 54 min 0 min 1 mm 879 W/m 14,2 C 19,7 C 21,5 km/h (4 Bft)
27.05.2018 12:30 22,3 C 31,1 C 63 % 1022,7 hPa 0,0 l/m 3,6 km/h (1 Bft) O-NO 67 58 min 0 min 0 mm 882 W/m 14,9 C 22,3 C 10,8 km/h (2 Bft)
27.05.2018 11:30 20,7 C 26,7 C 72 % 1022,7 hPa 0,0 l/m 7,2 km/h (2 Bft) O-SO 112 47 min 0 min 0 mm 916 W/m 15,5 C 20,4 C 12,6 km/h (3 Bft)
27.05.2018 10:30 18,1 C 21,1 C 80 % 1022,8 hPa 0,0 l/m 0,0 km/h (0 Bft) N 0 7 min 0 min 0 mm 381 W/m 14,6 C 18,1 C 0,0 km/h (0 Bft)
27.05.2018 09:30 16,7 C 18,9 C 86 % 1022,8 hPa 0,0 l/m 9,0 km/h (2 Bft) O 90 0 min 0 min 0 mm 257 W/m 14,3 C 15,4 C 10,8 km/h (2 Bft)
27.05.2018 08:30 15,7 C 16,7 C 91 % 1022,7 hPa 0,0 l/m 0,0 km/h (0 Bft) N 0 0 min 0 min 0 mm 134 W/m 14,2 C 15,7 C 0,0 km/h (0 Bft)
27.05.2018 07:30 14,9 C 15,6 C 95 % 1022,6 hPa 0,0 l/m 3,6 km/h (1 Bft) O-NO 67 0 min 0 min 0 mm 83 W/m 14,1 C 14,9 C 14,4 km/h (3 Bft)
27.05.2018 06:30 14,3 C 14,4 C 97 % 1022,8 hPa 0,0 l/m 3,6 km/h (1 Bft) O-NO 67 0 min 0 min 0 mm 49 W/m 13,8 C 14,3 C 12,6 km/h (3 Bft)
27.05.2018 06:00 14,2 C 14,4 C 97 % 1022,8 hPa 0,0 l/m 0,0 km/h (0 Bft) N 0 0 min 0 min 0 mm 21 W/m 13,7 C 14,2 C 0,0 km/h (0 Bft)
_ Min-Zeit 06:00 06:00 12:45 01:45 - 06:00 - - - - - - 06:36 07:35 06:00
Minimum _ 14,2 C 14,4 C 61 % 1019,6 hPa - 0,0 km/h (0 Bft) - - - - - - 13,7 C 12,0 C 0,0 km/h (0 Bft)
_ Max-Zeit 12:36 12:37 01:06 06:00 05:19 09:18 - - 10:15 04:16 13:00 13:20 18:41 12:39 13:29
Maximum _ 22,4 C 32,2 C 98 % 1022,8 hPa 0,2 l/m 14,4 km/h
O (3 Bft)
- - 1 min 1 min 1 mm 1097 W/m 15,8 C 22,4 C 23,3 km/h
O-SO (4 Bft)
Durchschnitt _ 17,6 C 18,8 C 84 % 1021,3 hPa #0,4 l/m 3,0 km/h (1 Bft) O-NO - #0 min. #27 min. #0,000 mm 5 W/m 14,7 C 17,4 C 7,7 km/h (2 Bft)